Terminal Aerodrome Forecast
Issued by NWS

Home | Current Version | Previous Version | Text Only | Print | Product List | Glossary On
Versions: 1 2 3 4 5 6 7 8 9 10 11 12 13
000
FTUS45 KREV 181126
TAFRNO
TAF
KRNO 181126Z 1812/1912 VRB04KT P6SM SCT100 SCT200 WS020/23035KT
     FM181500 19006KT P6SM VCSH SCT060 BKN100 WS020/23035KT
     FM181700 19007KT P6SM FEW060 BKN100 WS020/23040KT
     FM182000 19017G28KT P6SM SCT060 BKN110 WS015/23040KT
     FM190000 20020G32KT P6SM VCSH BKN050 OVC090
     FM190500 19018G30KT P6SM -SHRA BKN040 OVC080
     FM191000 23014G22KT 5SM -SHSN OVC025=

USA.gov is the U.S. government's official web portal to all federal, state and local government web resources and services.